Time;durP1;ratioP1;P1;durP2;ratioP2;P2;SDS_P1;SDS_P2;PMS_P1;PMS_P2;Temp;Humidity;BMP_temperature;BMP_pressure;BME280_temperature;BME280_humidity;BME280_pressure;Samples;Min_cycle;Max_cycle;Signal;HPM_P1;HPM_P2
2022/07/07 00:01:57;;;;;;;7.03;3.17;;;;;;;;;;5079539;28;20073;-73
2022/07/07 00:04:22;;;;;;;10.05;3.60;;;;;;;;;;5090485;28;20030;-72
2022/07/07 00:06:48;;;;;;;8.57;3.35;;;;;;;;;;5077548;28;20503;-73
2022/07/07 00:09:13;;;;;;;8.00;3.13;;;;;;;;;;5089245;28;20099;-72
2022/07/07 00:11:38;;;;;;;7.20;3.00;;;;;;;;;;5076870;28;20127;-72
2022/07/07 00:14:07;;;;;;;7.78;3.10;;;;;;;;;;5085647;28;20028;-72
2022/07/07 00:16:32;;;;;;;7.78;3.17;;;;;;;;;;5074698;28;20388;-73
2022/07/07 00:18:57;;;;;;;7.55;2.53;;;;;;;;;;5076262;28;20024;-73
2022/07/07 00:21:23;;;;;;;5.85;2.35;;;;;;;;;;5086192;28;20028;-73
2022/07/07 00:23:48;;;;;;;5.18;2.08;;;;;;;;;;5073715;28;20016;-73
2022/07/07 00:26:13;;;;;;;7.05;2.42;;;;;;;;;;5079216;28;20021;-72
2022/07/07 00:28:38;;;;;;;5.80;2.30;;;;;;;;;;5077502;28;20704;-72
2022/07/07 00:31:03;;;;;;;10.40;2.88;;;;;;;;;;5076425;28;20063;-73
2022/07/07 00:33:29;;;;;;;4.85;2.10;;;;;;;;;;5076655;28;20028;-72
2022/07/07 00:35:54;;;;;;;6.70;2.10;;;;;;;;;;5075685;28;20035;-73
2022/07/07 00:38:19;;;;;;;5.70;1.52;;;;;;;;;;5080290;28;20080;-73
2022/07/07 00:40:48;;;;;;;4.72;1.63;;;;;;;;;;5061410;28;20078;-72
2022/07/07 00:43:13;;;;;;;2.95;1.50;;;;;;;;;;5068837;28;20035;-71
2022/07/07 00:45:39;;;;;;;4.93;1.63;;;;;;;;;;5079059;28;20401;-71
2022/07/07 00:48:04;;;;;;;4.00;1.77;;;;;;;;;;5075626;28;20457;-71
2022/07/07 00:50:29;;;;;;;4.75;1.52;;;;;;;;;;5078098;28;20036;-71
2022/07/07 00:52:55;;;;;;;3.03;1.40;;;;;;;;;;5076311;28;20524;-71
2022/07/07 00:55:20;;;;;;;10.35;1.60;;;;;;;;;;5083434;28;20360;-72
2022/07/07 00:57:45;;;;;;;3.47;1.40;;;;;;;;;;5082375;28;20033;-72
2022/07/07 01:00:13;;;;;;;6.72;1.60;;;;;;;;;;5066590;28;20158;-72
2022/07/07 01:02:38;;;;;;;5.20;1.38;;;;;;;;;;5077790;28;20094;-72
2022/07/07 01:05:05;;;;;;;3.35;1.40;;;;;;;;;;5084236;28;20044;-72
2022/07/07 01:07:31;;;;;;;5.88;1.38;;;;;;;;;;5073715;28;20028;-72
2022/07/07 01:09:56;;;;;;;1.95;1.00;;;;;;;;;;5078976;28;20834;-72
2022/07/07 01:12:22;;;;;;;2.80;1.20;;;;;;;;;;5083220;28;20047;-72
2022/07/07 01:14:47;;;;;;;5.28;1.20;;;;;;;;;;5086143;28;20087;-73
2022/07/07 01:17:13;;;;;;;2.40;1.35;;;;;;;;;;5074364;28;20021;-73
2022/07/07 01:19:38;;;;;;;2.42;1.20;;;;;;;;;;5080129;28;20115;-73
2022/07/07 01:22:06;;;;;;;5.78;1.63;;;;;;;;;;5078929;28;20108;-73
2022/07/07 01:24:31;;;;;;;3.55;1.33;;;;;;;;;;5077137;28;20471;-72
2022/07/07 01:27:06;;;;;;;2.58;1.23;;;;;;;;;;5074324;28;20056;-72
2022/07/07 01:29:36;;;;;;;1.75;0.90;;;;;;;;;;5081640;28;20020;-72
2022/07/07 01:32:01;;;;;;;3.42;1.17;;;;;;;;;;5082140;28;20049;-73
2022/07/07 01:34:27;;;;;;;2.70;0.95;;;;;;;;;;5081109;28;20028;-72
2022/07/07 01:36:52;;;;;;;2.10;1.02;;;;;;;;;;5084974;28;20442;-72
2022/07/07 01:39:17;;;;;;;3.15;1.00;;;;;;;;;;5080824;28;20052;-72
2022/07/07 01:41:42;;;;;;;2.35;1.00;;;;;;;;;;5081562;28;20111;-72
2022/07/07 01:44:08;;;;;;;2.28;1.08;;;;;;;;;;5083744;28;20383;-72
2022/07/07 01:46:33;;;;;;;2.38;1.00;;;;;;;;;;5076717;28;20081;-72
2022/07/07 01:48:58;;;;;;;5.25;1.00;;;;;;;;;;5075470;28;20055;-72
2022/07/07 01:51:23;;;;;;;3.50;0.90;;;;;;;;;;5079064;28;20043;-73
2022/07/07 01:53:48;;;;;;;2.95;1.13;;;;;;;;;;5073690;28;20035;-71
2022/07/07 01:56:14;;;;;;;2.22;1.00;;;;;;;;;;5080385;28;20023;-71
2022/07/07 01:58:39;;;;;;;3.80;1.00;;;;;;;;;;5077572;28;20027;-71
2022/07/07 02:01:04;;;;;;;2.88;0.88;;;;;;;;;;5084387;28;20854;-71
2022/07/07 02:03:29;;;;;;;5.50;1.08;;;;;;;;;;5087020;28;20402;-72
2022/07/07 02:05:55;;;;;;;2.53;0.80;;;;;;;;;;5081365;28;20016;-71
2022/07/07 02:08:20;;;;;;;1.35;0.75;;;;;;;;;;5084299;28;20124;-71
2022/07/07 02:13:29;;;;;;;6.13;0.90;;;;;;;;;;5083500;28;20133;-72
2022/07/07 02:15:54;;;;;;;1.55;0.70;;;;;;;;;;5078917;28;20074;-72
2022/07/07 02:18:20;;;;;;;1.98;0.82;;;;;;;;;;5065733;28;20064;-71
2022/07/07 02:20:45;;;;;;;2.10;0.90;;;;;;;;;;5081423;28;20437;-72
2022/07/07 02:23:10;;;;;;;1.95;0.80;;;;;;;;;;5078722;28;20396;-72
2022/07/07 02:25:35;;;;;;;2.60;0.90;;;;;;;;;;5078932;28;20368;-72
2022/07/07 02:28:01;;;;;;;1.52;0.73;;;;;;;;;;5085173;28;20060;-72
2022/07/07 02:30:26;;;;;;;1.88;0.80;;;;;;;;;;5077571;28;20064;-72
2022/07/07 02:32:51;;;;;;;1.60;0.85;;;;;;;;;;5074483;28;20059;-72
2022/07/07 02:35:17;;;;;;;3.63;0.75;;;;;;;;;;5075586;28;20099;-72
2022/07/07 02:37:42;;;;;;;2.75;0.85;;;;;;;;;;5079461;28;20111;-72
2022/07/07 02:40:07;;;;;;;5.68;0.90;;;;;;;;;;5077947;28;20045;-72
2022/07/07 02:42:33;;;;;;;2.47;0.80;;;;;;;;;;5085654;28;20077;-72
2022/07/07 02:44:58;;;;;;;3.67;0.80;;;;;;;;;;5080340;28;20032;-72
2022/07/07 02:47:23;;;;;;;2.15;0.80;;;;;;;;;;5088664;28;20111;-72
2022/07/07 02:49:48;;;;;;;2.13;0.90;;;;;;;;;;5075107;28;20107;-72
2022/07/07 02:52:14;;;;;;;3.25;0.82;;;;;;;;;;5082740;28;20479;-72
2022/07/07 02:54:39;;;;;;;2.17;1.00;;;;;;;;;;5083602;28;20452;-72
2022/07/07 02:57:04;;;;;;;1.80;0.90;;;;;;;;;;5088421;28;20020;-72
2022/07/07 02:59:29;;;;;;;2.13;0.90;;;;;;;;;;5082357;28;20024;-72
2022/07/07 03:01:55;;;;;;;4.53;1.33;;;;;;;;;;5081426;28;20034;-72
2022/07/07 03:04:20;;;;;;;1.50;0.88;;;;;;;;;;5081184;28;20086;-72
2022/07/07 03:06:45;;;;;;;4.97;1.40;;;;;;;;;;5089678;28;20376;-71
2022/07/07 03:09:10;;;;;;;1.60;0.75;;;;;;;;;;5083338;28;20384;-72
2022/07/07 03:11:35;;;;;;;4.03;1.27;;;;;;;;;;5090351;28;20107;-72
2022/07/07 03:14:01;;;;;;;2.40;0.98;;;;;;;;;;5081736;28;20060;-72
2022/07/07 03:16:26;;;;;;;2.15;1.00;;;;;;;;;;5081509;28;20048;-72
2022/07/07 03:18:51;;;;;;;2.45;1.00;;;;;;;;;;5080662;28;20052;-72
2022/07/07 03:21:16;;;;;;;7.03;1.45;;;;;;;;;;5092156;28;20069;-72
2022/07/07 03:23:42;;;;;;;2.40;0.90;;;;;;;;;;5073922;28;20085;-72
2022/07/07 03:26:07;;;;;;;4.93;1.48;;;;;;;;;;5080415;28;20054;-72
2022/07/07 03:28:32;;;;;;;3.40;1.08;;;;;;;;;;5074377;28;20062;-71
2022/07/07 03:30:57;;;;;;;2.80;0.98;;;;;;;;;;5082195;28;20047;-71
2022/07/07 03:33:23;;;;;;;2.38;1.10;;;;;;;;;;5079567;28;20452;-72
2022/07/07 03:35:48;;;;;;;1.77;0.70;;;;;;;;;;5076194;28;20356;-72
2022/07/07 03:38:13;;;;;;;2.10;1.00;;;;;;;;;;5077459;28;20049;-72
2022/07/07 03:40:38;;;;;;;1.92;0.95;;;;;;;;;;5080666;28;20093;-72
2022/07/07 03:43:04;;;;;;;2.70;0.90;;;;;;;;;;5078490;28;20400;-72
2022/07/07 03:45:29;;;;;;;4.05;0.90;;;;;;;;;;5081408;28;20089;-71
2022/07/07 03:47:54;;;;;;;2.58;0.90;;;;;;;;;;5082527;28;20027;-72
2022/07/07 03:50:19;;;;;;;3.40;1.08;;;;;;;;;;5075840;28;20032;-72
2022/07/07 03:52:45;;;;;;;5.95;1.20;;;;;;;;;;5078247;28;20545;-72
2022/07/07 03:55:10;;;;;;;1.73;0.85;;;;;;;;;;5083336;28;20093;-72
2022/07/07 03:57:36;;;;;;;3.85;1.13;;;;;;;;;;5080690;28;20048;-71
2022/07/07 04:00:01;;;;;;;3.00;1.27;;;;;;;;;;5077009;28;20064;-72
2022/07/07 04:02:26;;;;;;;2.55;0.98;;;;;;;;;;5075933;28;20047;-72
2022/07/07 04:04:51;;;;;;;3.70;1.17;;;;;;;;;;5055656;28;20115;-72
2022/07/07 04:07:17;;;;;;;4.05;1.20;;;;;;;;;;5082844;28;20082;-72
2022/07/07 04:09:42;;;;;;;2.83;1.05;;;;;;;;;;5080419;28;20475;-71
2022/07/07 04:12:07;;;;;;;3.03;0.88;;;;;;;;;;5077171;28;20044;-72
2022/07/07 04:14:33;;;;;;;3.30;1.27;;;;;;;;;;5073591;28;20082;-71
2022/07/07 04:16:58;;;;;;;1.38;0.90;;;;;;;;;;5075224;28;20024;-72
2022/07/07 04:19:23;;;;;;;2.70;0.90;;;;;;;;;;5088473;28;20356;-72
2022/07/07 04:21:48;;;;;;;3.42;1.17;;;;;;;;;;5080457;28;20384;-72
2022/07/07 04:24:14;;;;;;;2.97;1.15;;;;;;;;;;5077532;28;20017;-72
2022/07/07 04:26:39;;;;;;;2.75;0.90;;;;;;;;;;5077970;28;20028;-72
2022/07/07 04:29:04;;;;;;;2.80;1.05;;;;;;;;;;5074959;28;20471;-72
2022/07/07 04:31:29;;;;;;;2.08;1.00;;;;;;;;;;5080236;28;20065;-72
2022/07/07 04:33:55;;;;;;;3.22;1.00;;;;;;;;;;5088771;28;20119;-72
2022/07/07 04:36:20;;;;;;;2.75;0.90;;;;;;;;;;5081433;28;20028;-72
2022/07/07 04:38:45;;;;;;;2.50;1.00;;;;;;;;;;5087638;28;20051;-72
2022/07/07 04:41:10;;;;;;;1.88;1.00;;;;;;;;;;5084298;28;20032;-73
2022/07/07 04:43:36;;;;;;;1.92;0.98;;;;;;;;;;5090388;28;20111;-72
2022/07/07 04:46:01;;;;;;;3.63;1.30;;;;;;;;;;5066696;28;20051;-72
2022/07/07 04:48:26;;;;;;;2.85;1.00;;;;;;;;;;5081571;28;20492;-72
2022/07/07 04:50:51;;;;;;;2.20;1.10;;;;;;;;;;5084658;28;20061;-72
2022/07/07 04:53:17;;;;;;;3.75;1.10;;;;;;;;;;5084141;28;20418;-72
2022/07/07 04:55:42;;;;;;;2.97;1.00;;;;;;;;;;5085099;28;20119;-72
2022/07/07 04:58:07;;;;;;;3.15;1.15;;;;;;;;;;5079497;28;20103;-72
2022/07/07 05:00:32;;;;;;;4.60;1.10;;;;;;;;;;5074892;28;20016;-72
2022/07/07 05:02:57;;;;;;;4.25;1.10;;;;;;;;;;5084914;28;20035;-72
2022/07/07 05:05:23;;;;;;;2.20;0.95;;;;;;;;;;5076478;28;20425;-72
2022/07/07 05:07:48;;;;;;;3.13;1.30;;;;;;;;;;5083621;28;20519;-72
2022/07/07 05:10:14;;;;;;;2.88;1.10;;;;;;;;;;5083051;28;20503;-72
2022/07/07 05:12:39;;;;;;;2.85;1.00;;;;;;;;;;5075675;28;20079;-73
2022/07/07 05:15:04;;;;;;;2.35;1.08;;;;;;;;;;5060030;28;20461;-72
2022/07/07 05:17:30;;;;;;;2.85;1.23;;;;;;;;;;5074672;28;20039;-72
2022/07/07 05:19:55;;;;;;;4.60;1.30;;;;;;;;;;5082694;28;20035;-72
2022/07/07 05:22:20;;;;;;;3.15;1.00;;;;;;;;;;5081799;28;20453;-72
2022/07/07 05:24:45;;;;;;;3.65;1.00;;;;;;;;;;5086132;28;20438;-72
2022/07/07 05:27:11;;;;;;;4.15;1.08;;;;;;;;;;5079712;28;20442;-72
2022/07/07 05:29:36;;;;;;;4.60;1.10;;;;;;;;;;5073221;28;20027;-72
2022/07/07 05:32:01;;;;;;;2.92;1.25;;;;;;;;;;5078466;28;20040;-72
2022/07/07 05:34:26;;;;;;;3.22;1.17;;;;;;;;;;5080885;28;20044;-72
2022/07/07 05:36:51;;;;;;;4.82;1.10;;;;;;;;;;5077727;28;20017;-73
2022/07/07 05:39:17;;;;;;;3.80;1.10;;;;;;;;;;5079909;28;20121;-72
2022/07/07 05:41:42;;;;;;;3.25;1.65;;;;;;;;;;5081412;28;20029;-72
2022/07/07 05:44:08;;;;;;;1.80;0.90;;;;;;;;;;5091464;28;20026;-72
2022/07/07 05:46:33;;;;;;;6.38;1.50;;;;;;;;;;5070212;28;20029;-72
2022/07/07 05:48:58;;;;;;;2.80;1.00;;;;;;;;;;5088290;28;20471;-72
2022/07/07 05:51:23;;;;;;;5.18;1.50;;;;;;;;;;5080721;28;20032;-72
2022/07/07 05:53:48;;;;;;;1.75;1.00;;;;;;;;;;5084553;28;20031;-72
2022/07/07 05:56:14;;;;;;;2.85;1.10;;;;;;;;;;5085190;28;20112;-72
2022/07/07 05:58:40;;;;;;;3.45;1.30;;;;;;;;;;5085107;28;20375;-73
2022/07/07 06:01:05;;;;;;;3.50;1.20;;;;;;;;;;5071463;28;20028;-72
2022/07/07 06:03:30;;;;;;;3.25;1.20;;;;;;;;;;5091980;28;20026;-72
2022/07/07 06:05:55;;;;;;;2.25;1.15;;;;;;;;;;5083456;28;20372;-72
2022/07/07 06:08:20;;;;;;;3.28;1.40;;;;;;;;;;5083609;28;20054;-72
2022/07/07 06:10:46;;;;;;;4.95;1.30;;;;;;;;;;5078597;28;20060;-73
2022/07/07 06:13:11;;;;;;;2.88;1.17;;;;;;;;;;5080657;28;20062;-72
2022/07/07 06:15:36;;;;;;;2.85;1.30;;;;;;;;;;5081538;28;20483;-72
2022/07/07 06:18:03;;;;;;;2.38;1.13;;;;;;;;;;5078676;28;20028;-72
2022/07/07 06:20:28;;;;;;;3.38;1.40;;;;;;;;;;5081765;28;20059;-72
2022/07/07 06:22:53;;;;;;;3.75;1.10;;;;;;;;;;5080484;28;20055;-72
2022/07/07 06:25:20;;;;;;;3.72;1.40;;;;;;;;;;5079728;28;20021;-72
2022/07/07 06:27:45;;;;;;;3.38;1.50;;;;;;;;;;5086748;28;20128;-72
2022/07/07 06:30:11;;;;;;;2.40;1.08;;;;;;;;;;5079442;28;20828;-72
2022/07/07 06:32:36;;;;;;;3.88;1.30;;;;;;;;;;5080967;28;20043;-72
2022/07/07 06:35:01;;;;;;;3.88;1.40;;;;;;;;;;5082457;28;20077;-73
2022/07/07 06:37:27;;;;;;;3.38;1.40;;;;;;;;;;5087576;28;20077;-72
2022/07/07 06:39:52;;;;;;;4.57;1.20;;;;;;;;;;5076730;28;20041;-73
2022/07/07 06:42:17;;;;;;;4.60;1.35;;;;;;;;;;5079801;28;20508;-73
2022/07/07 06:44:42;;;;;;;3.92;1.15;;;;;;;;;;5079934;28;20032;-72
2022/07/07 06:47:08;;;;;;;2.60;1.60;;;;;;;;;;5079921;28;20035;-73
2022/07/07 06:49:33;;;;;;;4.05;1.27;;;;;;;;;;5076045;28;20030;-73
2022/07/07 06:51:58;;;;;;;3.83;1.63;;;;;;;;;;5050661;28;20044;-73
2022/07/07 06:54:24;;;;;;;5.05;1.35;;;;;;;;;;5057296;28;20040;-73
2022/07/07 06:56:49;;;;;;;4.55;1.50;;;;;;;;;;5078864;28;20012;-73
2022/07/07 06:59:15;;;;;;;3.45;1.50;;;;;;;;;;5085265;28;20028;-73
2022/07/07 07:01:40;;;;;;;3.70;1.25;;;;;;;;;;5084333;28;20106;-73
2022/07/07 07:04:07;;;;;;;4.03;1.30;;;;;;;;;;5092236;28;20055;-73
2022/07/07 07:06:32;;;;;;;4.70;1.38;;;;;;;;;;5080916;28;20054;-73
2022/07/07 07:08:58;;;;;;;2.30;1.40;;;;;;;;;;5086905;28;20028;-72
2022/07/07 07:11:24;;;;;;;3.95;1.40;;;;;;;;;;5087948;28;20046;-73
2022/07/07 07:13:49;;;;;;;2.65;1.30;;;;;;;;;;5085501;28;20111;-73
2022/07/07 07:16:15;;;;;;;4.80;1.30;;;;;;;;;;5085512;28;20125;-72
2022/07/07 07:18:40;;;;;;;4.18;1.40;;;;;;;;;;5089891;28;20366;-72
2022/07/07 07:21:05;;;;;;;4.55;1.50;;;;;;;;;;5084173;28;20073;-73
2022/07/07 07:23:31;;;;;;;3.97;1.40;;;;;;;;;;5062943;28;20036;-72
2022/07/07 07:25:56;;;;;;;3.05;1.25;;;;;;;;;;5076491;28;20024;-72
2022/07/07 07:28:21;;;;;;;3.72;1.45;;;;;;;;;;5087043;28;20467;-72
2022/07/07 07:30:46;;;;;;;4.40;1.40;;;;;;;;;;5067698;28;20056;-73
2022/07/07 07:33:12;;;;;;;6.00;1.50;;;;;;;;;;5066307;28;20035;-72
2022/07/07 07:35:37;;;;;;;6.68;1.77;;;;;;;;;;5084578;28;20051;-72
2022/07/07 07:38:02;;;;;;;3.83;1.50;;;;;;;;;;5084398;28;20060;-72
2022/07/07 07:40:27;;;;;;;3.58;1.38;;;;;;;;;;5073496;28;20032;-72
2022/07/07 07:42:53;;;;;;;6.80;2.03;;;;;;;;;;5072159;28;20036;-72
2022/07/07 07:45:19;;;;;;;4.60;1.60;;;;;;;;;;5078258;28;20028;-73
2022/07/07 07:47:46;;;;;;;7.00;1.77;;;;;;;;;;5084266;28;20074;-72
2022/07/07 07:50:12;;;;;;;5.32;1.50;;;;;;;;;;5081420;28;20036;-72
2022/07/07 07:52:41;;;;;;;3.67;1.60;;;;;;;;;;5078570;28;20488;-72
2022/07/07 07:55:07;;;;;;;3.92;1.75;;;;;;;;;;5079930;28;20027;-72
2022/07/07 07:57:32;;;;;;;10.63;2.10;;;;;;;;;;5075059;28;20033;-72
2022/07/07 07:59:58;;;;;;;3.15;1.40;;;;;;;;;;5087503;28;20047;-73
2022/07/07 08:02:23;;;;;;;6.50;1.77;;;;;;;;;;5083561;28;20032;-71
2022/07/07 08:04:48;;;;;;;4.30;1.50;;;;;;;;;;5075373;28;20126;-71
2022/07/07 08:07:14;;;;;;;3.55;1.45;;;;;;;;;;5086387;28;20065;-72
2022/07/07 08:09:39;;;;;;;4.55;1.52;;;;;;;;;;5066569;28;20013;-72
2022/07/07 08:12:05;;;;;;;2.92;1.30;;;;;;;;;;5071912;28;20093;-73
2022/07/07 08:14:30;;;;;;;3.05;1.15;;;;;;;;;;5063324;28;20039;-72
2022/07/07 08:16:55;;;;;;;3.53;1.30;;;;;;;;;;5079109;28;20039;-72
2022/07/07 08:19:21;;;;;;;2.47;1.17;;;;;;;;;;5063895;28;20325;-72
2022/07/07 08:21:46;;;;;;;2.53;1.20;;;;;;;;;;5077819;28;20029;-72
2022/07/07 08:24:15;;;;;;;3.30;1.30;;;;;;;;;;5067784;28;20114;-73
2022/07/07 08:26:41;;;;;;;3.00;1.30;;;;;;;;;;5072370;28;20078;-72
2022/07/07 08:29:06;;;;;;;2.58;1.00;;;;;;;;;;5072219;28;20025;-72
2022/07/07 08:31:31;;;;;;;2.90;1.30;;;;;;;;;;5072618;28;20400;-73
2022/07/07 08:33:57;;;;;;;3.90;1.70;;;;;;;;;;5078643;28;20115;-72
2022/07/07 08:36:22;;;;;;;6.32;1.67;;;;;;;;;;5074685;28;20051;-72
2022/07/07 08:38:47;;;;;;;4.00;1.30;;;;;;;;;;5070693;28;20036;-73
2022/07/07 08:41:13;;;;;;;5.78;1.35;;;;;;;;;;5075194;28;20420;-72
2022/07/07 08:43:38;;;;;;;3.60;1.30;;;;;;;;;;5060361;28;20115;-72
2022/07/07 08:46:04;;;;;;;5.43;1.73;;;;;;;;;;5061738;28;20021;-72
2022/07/07 08:48:29;;;;;;;5.30;1.20;;;;;;;;;;5083725;28;20428;-72
2022/07/07 08:50:55;;;;;;;4.18;1.52;;;;;;;;;;5081454;28;20032;-72
2022/07/07 08:53:21;;;;;;;3.95;1.23;;;;;;;;;;5078742;28;20760;-72
2022/07/07 08:55:47;;;;;;;3.67;1.10;;;;;;;;;;5073709;28;20119;-72
2022/07/07 08:58:13;;;;;;;2.63;1.10;;;;;;;;;;5062600;28;20483;-73
2022/07/07 09:00:38;;;;;;;3.17;1.10;;;;;;;;;;5078094;28;20024;-72
2022/07/07 09:03:05;;;;;;;2.03;0.90;;;;;;;;;;5084429;28;20043;-73
2022/07/07 09:05:37;;;;;;;3.35;1.23;;;;;;;;;;5069814;28;20394;-73
2022/07/07 09:08:15;;;;;;;4.00;1.05;;;;;;;;;;5076523;28;20023;-72
2022/07/07 09:10:42;;;;;;;3.70;1.00;;;;;;;;;;5064211;28;20032;-72
2022/07/07 09:13:31;;;;;;;3.45;1.15;;;;;;;;;;5073689;28;20074;-72
2022/07/07 09:16:04;;;;;;;2.80;0.93;;;;;;;;;;5076767;28;20052;-72
2022/07/07 09:18:30;;;;;;;4.45;1.10;;;;;;;;;;5076172;28;21368;-73
2022/07/07 09:20:56;;;;;;;3.72;1.02;;;;;;;;;;5074082;28;20480;-72
2022/07/07 09:23:22;;;;;;;3.70;1.15;;;;;;;;;;5081320;28;20922;-72
2022/07/07 09:25:47;;;;;;;3.53;1.10;;;;;;;;;;5090561;28;20016;-73
2022/07/07 09:28:13;;;;;;;2.42;0.98;;;;;;;;;;5075121;28;20040;-72
2022/07/07 09:30:42;;;;;;;3.05;0.98;;;;;;;;;;5075709;28;20025;-73
2022/07/07 09:33:11;;;;;;;3.42;1.25;;;;;;;;;;5080222;28;20038;-73
2022/07/07 09:38:24;;;;;;;4.30;0.98;;;;;;;;;;5087945;28;20083;-73
2022/07/07 09:40:49;;;;;;;2.95;1.25;;;;;;;;;;5089704;28;20031;-72
2022/07/07 09:43:15;;;;;;;4.82;1.17;;;;;;;;;;5080620;28;20024;-72
2022/07/07 09:45:40;;;;;;;2.45;1.20;;;;;;;;;;5084501;28;20024;-72
2022/07/07 09:48:07;;;;;;;3.33;1.40;;;;;;;;;;5093454;28;20456;-73
2022/07/07 09:50:32;;;;;;;3.22;1.42;;;;;;;;;;5084175;28;20012;-73
2022/07/07 09:53:05;;;;;;;2.30;1.30;;;;;;;;;;5079974;28;20438;-73
2022/07/07 09:55:30;;;;;;;1.90;1.10;;;;;;;;;;5080122;28;20029;-72
2022/07/07 09:57:55;;;;;;;2.38;1.27;;;;;;;;;;5076682;28;20062;-72
2022/07/07 10:00:21;;;;;;;2.50;1.10;;;;;;;;;;5094583;28;20020;-72
2022/07/07 10:02:46;;;;;;;2.92;1.00;;;;;;;;;;5081684;28;20041;-73
2022/07/07 10:05:12;;;;;;;3.03;1.10;;;;;;;;;;5090943;28;20044;-72
2022/07/07 10:07:38;;;;;;;2.35;0.90;;;;;;;;;;5091126;28;20024;-72
2022/07/07 10:10:05;;;;;;;2.10;0.90;;;;;;;;;;5094203;28;20024;-72
2022/07/07 10:12:31;;;;;;;3.05;0.98;;;;;;;;;;5083779;28;20472;-72
2022/07/07 10:15:01;;;;;;;2.58;0.88;;;;;;;;;;5089639;28;20491;-73
2022/07/07 10:17:27;;;;;;;2.90;1.20;;;;;;;;;;5087224;28;20040;-73
2022/07/07 10:19:52;;;;;;;2.85;1.30;;;;;;;;;;5088692;28;20024;-73
2022/07/07 10:22:18;;;;;;;2.90;1.40;;;;;;;;;;5091193;28;20113;-73
2022/07/07 10:24:44;;;;;;;4.32;1.40;;;;;;;;;;5093723;28;20107;-73
2022/07/07 10:27:14;;;;;;;3.28;1.55;;;;;;;;;;5078198;28;20021;-73
2022/07/07 10:29:50;;;;;;;3.22;1.42;;;;;;;;;;5084209;28;20052;-73
2022/07/07 10:32:17;;;;;;;2.65;1.50;;;;;;;;;;5087054;28;20093;-73
2022/07/07 10:34:50;;;;;;;3.50;1.60;;;;;;;;;;5084455;28;20023;-73
2022/07/07 10:37:15;;;;;;;2.57;1.60;;;;;;;;;;5076747;28;20036;-73
2022/07/07 10:39:42;;;;;;;4.57;1.38;;;;;;;;;;5081628;28;20756;-74
2022/07/07 10:42:16;;;;;;;3.13;1.52;;;;;;;;;;5080673;28;20517;-73
2022/07/07 10:44:42;;;;;;;2.83;1.30;;;;;;;;;;5081565;28;20064;-73
2022/07/07 10:47:11;;;;;;;2.95;1.70;;;;;;;;;;5068360;28;20468;-73
2022/07/07 10:49:38;;;;;;;2.50;1.60;;;;;;;;;;5081601;28;20034;-73
2022/07/07 10:52:08;;;;;;;2.40;1.40;;;;;;;;;;5083601;28;20048;-73
2022/07/07 10:54:36;;;;;;;3.33;1.67;;;;;;;;;;5080486;28;20024;-73
2022/07/07 10:57:01;;;;;;;2.72;1.52;;;;;;;;;;5081994;28;20059;-73
2022/07/07 10:59:27;;;;;;;3.00;1.50;;;;;;;;;;5079441;28;20039;-73
2022/07/07 11:02:01;;;;;;;2.30;1.30;;;;;;;;;;5075709;28;20249;-73
2022/07/07 11:04:42;;;;;;;2.40;1.20;;;;;;;;;;5073295;28;20039;-73
2022/07/07 11:07:09;;;;;;;2.20;1.33;;;;;;;;;;5076409;28;20028;-73
2022/07/07 11:09:54;;;;;;;1.90;1.05;;;;;;;;;;5080955;28;20039;-73
2022/07/07 11:12:36;;;;;;;2.65;1.42;;;;;;;;;;5081272;28;20094;-73
2022/07/07 11:15:22;;;;;;;2.58;1.40;;;;;;;;;;5066918;28;20062;-73
2022/07/07 11:17:49;;;;;;;2.67;1.40;;;;;;;;;;5061252;28;20436;-73
2022/07/07 11:20:16;;;;;;;4.20;1.45;;;;;;;;;;5073989;28;20035;-73
2022/07/07 11:22:45;;;;;;;2.45;1.38;;;;;;;;;;5083521;28;20016;-73
2022/07/07 11:25:14;;;;;;;4.13;1.50;;;;;;;;;;5077915;28;20012;-73
2022/07/07 11:27:39;;;;;;;2.75;1.30;;;;;;;;;;5084460;28;20119;-73
2022/07/07 11:30:05;;;;;;;3.00;1.40;;;;;;;;;;5087714;28;20107;-72
2022/07/07 11:32:41;;;;;;;2.90;1.58;;;;;;;;;;5080662;28;20032;-73
2022/07/07 11:35:08;;;;;;;6.05;1.35;;;;;;;;;;5076759;28;20029;-73
2022/07/07 11:37:37;;;;;;;3.92;1.70;;;;;;;;;;5081517;28;20019;-73
2022/07/07 11:40:03;;;;;;;3.60;1.67;;;;;;;;;;5077184;28;20060;-73
2022/07/07 11:42:33;;;;;;;3.47;1.50;;;;;;;;;;5079965;28;20028;-73
2022/07/07 11:44:59;;;;;;;2.67;1.50;;;;;;;;;;5072586;28;20016;-73
2022/07/07 11:47:24;;;;;;;2.92;1.40;;;;;;;;;;5073278;28;20038;-73
2022/07/07 11:49:52;;;;;;;2.88;1.60;;;;;;;;;;5074860;28;20028;-73
2022/07/07 11:52:21;;;;;;;2.78;1.70;;;;;;;;;;5077937;28;20040;-73
2022/07/07 11:54:47;;;;;;;3.03;1.70;;;;;;;;;;5064428;28;20135;-73
2022/07/07 11:57:33;;;;;;;4.22;1.80;;;;;;;;;;5049539;28;20032;-73
2022/07/07 12:00:15;;;;;;;4.68;2.10;;;;;;;;;;5081057;28;20070;-73
2022/07/07 12:02:41;;;;;;;4.80;2.03;;;;;;;;;;5083644;28;20085;-73
2022/07/07 12:05:07;;;;;;;4.20;1.80;;;;;;;;;;5084720;28;20028;-73
2022/07/07 12:07:33;;;;;;;4.53;1.50;;;;;;;;;;5076249;28;20036;-73
2022/07/07 12:09:58;;;;;;;2.97;1.70;;;;;;;;;;5073447;28;20039;-73
2022/07/07 12:12:24;;;;;;;4.30;1.88;;;;;;;;;;5065777;28;20040;-73
2022/07/07 12:14:50;;;;;;;2.95;1.60;;;;;;;;;;5065155;28;20054;-73
2022/07/07 12:17:34;;;;;;;2.55;1.42;;;;;;;;;;5071766;28;20051;-73
2022/07/07 12:20:00;;;;;;;3.08;1.63;;;;;;;;;;5074545;28;20457;-73
2022/07/07 12:22:40;;;;;;;3.78;1.63;;;;;;;;;;5074939;28;20024;-73
2022/07/07 12:25:07;;;;;;;3.80;1.92;;;;;;;;;;5063818;28;20032;-73
2022/07/07 12:27:32;;;;;;;2.45;1.48;;;;;;;;;;5070096;28;20449;-73
2022/07/07 12:29:59;;;;;;;3.45;1.70;;;;;;;;;;5072147;28;20042;-73
2022/07/07 12:32:25;;;;;;;3.95;1.67;;;;;;;;;;5074032;28;20028;-73
2022/07/07 12:34:50;;;;;;;2.78;1.50;;;;;;;;;;5072353;28;20090;-73
2022/07/07 12:37:16;;;;;;;4.75;1.70;;;;;;;;;;5077102;28;20013;-73
2022/07/07 12:39:48;;;;;;;2.58;1.60;;;;;;;;;;5050752;28;20076;-74
2022/07/07 12:42:23;;;;;;;3.25;1.85;;;;;;;;;;5068004;28;20368;-73
2022/07/07 12:44:48;;;;;;;2.70;1.60;;;;;;;;;;5072128;28;20753;-73
2022/07/07 12:47:15;;;;;;;2.70;1.63;;;;;;;;;;5065792;28;20033;-73
2022/07/07 12:49:51;;;;;;;3.00;1.60;;;;;;;;;;5063123;28;20052;-74
2022/07/07 12:52:17;;;;;;;4.05;1.90;;;;;;;;;;5064824;28;20047;-73
2022/07/07 12:54:43;;;;;;;3.40;1.90;;;;;;;;;;5073280;28;20032;-74
2022/07/07 12:57:08;;;;;;;4.65;2.00;;;;;;;;;;5064257;28;20025;-74
2022/07/07 12:59:38;;;;;;;4.03;1.70;;;;;;;;;;5073497;28;20032;-73
2022/07/07 13:02:04;;;;;;;2.50;1.65;;;;;;;;;;5070587;28;20480;-74
2022/07/07 13:04:30;;;;;;;3.15;1.80;;;;;;;;;;5071527;28;20028;-74
2022/07/07 13:06:55;;;;;;;3.08;1.70;;;;;;;;;;5057970;28;20054;-74
2022/07/07 13:09:21;;;;;;;3.08;1.60;;;;;;;;;;5064177;28;20376;-74
2022/07/07 13:11:50;;;;;;;7.35;1.98;;;;;;;;;;5070723;28;20111;-74
2022/07/07 13:14:15;;;;;;;3.50;1.65;;;;;;;;;;5073672;28;20528;-74
2022/07/07 13:16:41;;;;;;;4.38;1.90;;;;;;;;;;5073451;28;20472;-74
2022/07/07 13:19:07;;;;;;;3.97;1.90;;;;;;;;;;5075764;28;20452;-74
2022/07/07 13:21:32;;;;;;;4.30;1.85;;;;;;;;;;5072052;28;20036;-74
2022/07/07 13:23:58;;;;;;;3.17;1.95;;;;;;;;;;5075106;28;20043;-74
2022/07/07 13:26:24;;;;;;;3.83;1.98;;;;;;;;;;5076438;28;20445;-74
2022/07/07 13:28:50;;;;;;;5.10;2.47;;;;;;;;;;5072655;28;20073;-74
2022/07/07 13:31:15;;;;;;;3.95;1.95;;;;;;;;;;5070305;28;20021;-74
2022/07/07 13:33:41;;;;;;;3.63;2.10;;;;;;;;;;5074407;28;20166;-73
2022/07/07 13:36:07;;;;;;;4.65;2.50;;;;;;;;;;5065789;28;20036;-73
2022/07/07 13:38:33;;;;;;;2.88;1.80;;;;;;;;;;5072763;28;20397;-74
2022/07/07 13:40:59;;;;;;;3.78;2.15;;;;;;;;;;5075769;28;20031;-73
2022/07/07 13:43:24;;;;;;;4.28;2.25;;;;;;;;;;5076763;28;20024;-72
2022/07/07 13:45:50;;;;;;;4.13;2.22;;;;;;;;;;5074516;28;20036;-72
2022/07/07 13:48:16;;;;;;;3.72;2.38;;;;;;;;;;5045613;28;20626;-73
2022/07/07 13:50:42;;;;;;;3.53;2.53;;;;;;;;;;5067143;28;20464;-73
2022/07/07 13:53:08;;;;;;;4.68;2.20;;;;;;;;;;5065849;28;20068;-73
2022/07/07 13:55:34;;;;;;;3.38;2.10;;;;;;;;;;5074893;28;20371;-72
2022/07/07 13:58:00;;;;;;;4.68;2.30;;;;;;;;;;5068069;28;20521;-73
2022/07/07 14:00:25;;;;;;;3.78;2.20;;;;;;;;;;5067258;28;20021;-73
2022/07/07 14:02:52;;;;;;;4.28;2.45;;;;;;;;;;5076658;28;20113;-73
2022/07/07 14:05:18;;;;;;;4.85;2.03;;;;;;;;;;5077906;28;20036;-72
2022/07/07 14:07:43;;;;;;;3.95;2.22;;;;;;;;;;5070801;28;20494;-73
2022/07/07 14:10:09;;;;;;;5.85;2.22;;;;;;;;;;5077680;28;20020;-72
2022/07/07 14:12:35;;;;;;;3.97;2.03;;;;;;;;;;5068087;28;20926;-73
2022/07/07 14:15:00;;;;;;;3.85;2.05;;;;;;;;;;5078271;28;20036;-72
2022/07/07 14:17:27;;;;;;;3.72;2.10;;;;;;;;;;5075030;28;20031;-72
2022/07/07 14:19:53;;;;;;;3.78;2.10;;;;;;;;;;5083710;28;20564;-72
2022/07/07 14:22:18;;;;;;;3.75;2.10;;;;;;;;;;5085724;28;20024;-72
2022/07/07 14:24:43;;;;;;;3.58;2.17;;;;;;;;;;5088610;28;20030;-72
2022/07/07 14:27:09;;;;;;;3.83;1.95;;;;;;;;;;5083208;28;20029;-72
2022/07/07 14:29:34;;;;;;;3.42;1.70;;;;;;;;;;5075827;28;20476;-72
2022/07/07 14:32:00;;;;;;;6.10;1.98;;;;;;;;;;5084942;28;20425;-72
2022/07/07 14:34:25;;;;;;;3.50;1.80;;;;;;;;;;5077552;28;20039;-72
2022/07/07 14:36:51;;;;;;;3.58;1.70;;;;;;;;;;5075569;28;20029;-73
2022/07/07 14:39:16;;;;;;;3.80;1.65;;;;;;;;;;5085214;28;20464;-72
2022/07/07 14:41:41;;;;;;;4.28;2.10;;;;;;;;;;5084815;28;20028;-72
2022/07/07 14:44:06;;;;;;;3.30;1.60;;;;;;;;;;5088837;28;20036;-72